createdAt,value
2024-03-28T00:00:49.721Z,427.00
2024-03-28T00:01:47.967Z,430.00
2024-03-28T00:02:47.948Z,430.00
2024-03-28T00:03:47.952Z,428.00
2024-03-28T00:04:47.956Z,426.00
2024-03-28T00:05:47.951Z,427.00
2024-03-28T00:06:47.955Z,424.00
2024-03-28T00:07:47.949Z,427.00
2024-03-28T00:08:47.958Z,427.00
2024-03-28T00:09:47.958Z,426.00
2024-03-28T00:10:47.964Z,426.00
2024-03-28T00:11:47.961Z,426.00
2024-03-28T00:12:47.963Z,431.00
2024-03-28T00:13:47.964Z,432.00
2024-03-28T00:14:47.992Z,432.00
2024-03-28T00:15:48.035Z,432.00
2024-03-28T00:16:48.082Z,431.00
2024-03-28T00:17:48.136Z,432.00
2024-03-28T00:18:48.195Z,429.00
2024-03-28T00:19:48.243Z,426.00
2024-03-28T00:20:48.299Z,426.00
2024-03-28T00:21:48.354Z,426.00
2024-03-28T00:22:48.403Z,428.00
2024-03-28T00:23:48.465Z,427.00
2024-03-28T00:24:48.497Z,426.00
2024-03-28T00:25:48.542Z,428.00
2024-03-28T00:26:48.599Z,428.00
2024-03-28T00:27:48.633Z,429.00
2024-03-28T00:28:48.686Z,429.00
2024-03-28T00:29:48.732Z,430.00
2024-03-28T00:30:48.785Z,431.00
2024-03-28T00:31:48.822Z,431.00
2024-03-28T00:32:48.877Z,431.00
2024-03-28T00:33:48.915Z,431.00
2024-03-28T00:34:48.965Z,433.00
2024-03-28T00:35:49.009Z,431.00
2024-03-28T00:36:49.055Z,427.00
2024-03-28T00:37:49.102Z,429.00
2024-03-28T00:38:49.149Z,430.00
2024-03-28T00:39:49.179Z,428.00
2024-03-28T00:40:49.229Z,424.00
2024-03-28T00:41:49.272Z,426.00
2024-03-28T00:42:49.316Z,427.00
2024-03-28T00:43:49.358Z,429.00
2024-03-28T00:44:49.431Z,428.00
2024-03-28T00:45:49.450Z,432.00
2024-03-28T00:46:49.495Z,433.00
2024-03-28T00:47:49.541Z,432.00
2024-03-28T00:48:49.598Z,432.00
2024-03-28T00:49:49.630Z,432.00
2024-03-28T00:50:49.677Z,430.00
2024-03-28T00:51:49.729Z,431.00
2024-03-28T00:52:49.776Z,431.00
2024-03-28T00:53:49.811Z,434.00
2024-03-28T00:54:49.876Z,436.00
2024-03-28T00:55:49.919Z,437.00
2024-03-28T00:56:49.957Z,435.00
2024-03-28T00:57:50.006Z,434.00
2024-03-28T00:58:50.057Z,434.00
2024-03-28T00:59:50.096Z,434.00
2024-03-28T01:00:50.155Z,435.00
2024-03-28T01:01:50.195Z,433.00
2024-03-28T01:02:50.242Z,435.00
2024-03-28T01:03:50.290Z,431.00
2024-03-28T01:04:50.353Z,430.00
2024-03-28T01:05:50.393Z,430.00
2024-03-28T01:06:50.440Z,431.00
2024-03-28T01:07:50.488Z,432.00
2024-03-28T01:08:50.526Z,433.00
2024-03-28T01:09:50.604Z,433.00
2024-03-28T01:10:50.621Z,434.00
2024-03-28T01:11:50.667Z,432.00
2024-03-28T01:12:50.719Z,433.00
2024-03-28T01:13:50.760Z,432.00
2024-03-28T01:14:50.800Z,432.00
2024-03-28T01:15:50.830Z,433.00
2024-03-28T01:16:50.878Z,435.00
2024-03-28T01:17:50.917Z,434.00
2024-03-28T01:18:50.975Z,434.00
2024-03-28T01:19:51.015Z,436.00
2024-03-28T01:20:51.059Z,436.00
2024-03-28T01:21:51.098Z,438.00
2024-03-28T01:22:51.147Z,438.00
2024-03-28T01:23:51.198Z,436.00
2024-03-28T01:24:51.239Z,435.00
2024-03-28T01:25:51.267Z,435.00
2024-03-28T01:26:51.315Z,434.00
2024-03-28T01:27:51.354Z,432.00
2024-03-28T01:28:51.410Z,432.00
2024-03-28T01:29:51.446Z,434.00
2024-03-28T01:30:51.482Z,434.00
2024-03-28T01:31:51.517Z,435.00
2024-03-28T01:32:51.562Z,436.00
2024-03-28T01:33:51.596Z,438.00
2024-03-28T01:34:51.646Z,441.00
2024-03-28T01:35:51.690Z,442.00
2024-03-28T01:36:51.728Z,441.00
2024-03-28T01:37:51.769Z,440.00
2024-03-28T01:38:51.810Z,440.00
2024-03-28T01:39:51.845Z,439.00
2024-03-28T01:40:51.903Z,436.00
2024-03-28T01:41:51.976Z,436.00
2024-03-28T01:42:51.970Z,437.00
2024-03-28T01:43:52.154Z,436.00
2024-03-28T01:44:52.046Z,438.00
2024-03-28T01:45:52.080Z,443.00
2024-03-28T01:48:52.223Z,438.00
2024-03-28T01:49:52.260Z,440.00
2024-03-28T01:50:52.299Z,441.00
2024-03-28T01:51:52.346Z,440.00
2024-03-28T01:52:52.380Z,438.00
2024-03-28T01:53:52.430Z,435.00
2024-03-28T01:54:52.458Z,436.00
2024-03-28T01:55:52.504Z,435.00
2024-03-28T01:56:52.540Z,436.00
2024-03-28T01:57:52.597Z,436.00
2024-03-28T01:58:52.634Z,436.00
2024-03-28T01:59:52.686Z,438.00
2024-03-28T02:00:52.715Z,437.00
2024-03-28T02:01:52.771Z,437.00
2024-03-28T02:02:52.806Z,436.00
2024-03-28T02:03:52.857Z,437.00
2024-03-28T02:04:52.894Z,437.00
2024-03-28T02:05:52.934Z,437.00
2024-03-28T02:06:52.995Z,436.00
2024-03-28T02:07:53.020Z,437.00
2024-03-28T02:08:53.098Z,440.00
2024-03-28T02:09:53.112Z,439.00
2024-03-28T02:10:53.159Z,439.00
2024-03-28T02:11:53.215Z,440.00
2024-03-28T02:12:53.251Z,438.00
2024-03-28T02:13:53.295Z,436.00
2024-03-28T02:14:53.340Z,439.00
2024-03-28T02:15:53.374Z,437.00
2024-03-28T02:16:53.403Z,440.00
2024-03-28T02:17:53.425Z,440.00
2024-03-28T02:18:53.464Z,441.00
2024-03-28T02:19:53.495Z,442.00
2024-03-28T02:20:53.503Z,440.00
2024-03-28T02:21:53.514Z,438.00
2024-03-28T02:22:53.542Z,441.00
2024-03-28T02:23:53.566Z,438.00
2024-03-28T02:24:53.596Z,438.00
2024-03-28T02:25:53.612Z,437.00
2024-03-28T02:26:53.649Z,437.00
2024-03-28T02:27:53.673Z,436.00
2024-03-28T02:28:53.701Z,435.00
2024-03-28T02:29:53.696Z,436.00
2024-03-28T02:30:53.698Z,434.00
2024-03-28T02:31:53.700Z,435.00
2024-03-28T02:32:53.702Z,434.00
2024-03-28T02:33:53.704Z,436.00
2024-03-28T02:34:53.711Z,436.00
2024-03-28T02:35:53.703Z,435.00
2024-03-28T02:36:53.704Z,434.00
2024-03-28T02:37:53.711Z,433.00
2024-03-28T02:38:53.706Z,436.00
2024-03-28T02:39:53.712Z,433.00
2024-03-28T02:40:53.712Z,433.00
2024-03-28T02:41:53.725Z,431.00
2024-03-28T02:42:53.718Z,431.00
2024-03-28T02:43:53.725Z,433.00
2024-03-28T02:44:53.720Z,434.00
2024-03-28T02:45:53.748Z,434.00
2024-03-28T02:46:53.732Z,434.00
2024-03-28T02:47:53.733Z,434.00
2024-03-28T02:48:53.728Z,432.00
2024-03-28T02:49:53.731Z,433.00
2024-03-28T02:50:53.720Z,435.00
2024-03-28T02:51:53.742Z,436.00
2024-03-28T02:52:53.735Z,437.00
2024-03-28T02:53:53.739Z,437.00
2024-03-28T02:54:53.733Z,438.00
2024-03-28T02:55:53.743Z,437.00
2024-03-28T02:56:53.741Z,435.00
2024-03-28T02:57:53.741Z,435.00
2024-03-28T02:58:53.747Z,435.00
2024-03-28T02:59:53.747Z,438.00
2024-03-28T03:00:53.742Z,437.00
2024-03-28T03:01:53.779Z,436.00
2024-03-28T03:02:53.819Z,435.00
2024-03-28T03:03:53.841Z,437.00
2024-03-28T03:04:53.871Z,437.00
2024-03-28T03:05:53.936Z,435.00
2024-03-28T03:06:53.954Z,437.00
2024-03-28T03:07:54.059Z,439.00
2024-03-28T03:08:54.037Z,441.00
2024-03-28T03:09:54.093Z,440.00
2024-03-28T03:10:54.103Z,438.00
2024-03-28T03:11:54.147Z,438.00
2024-03-28T03:12:54.172Z,435.00
2024-03-28T03:13:54.206Z,434.00
2024-03-28T03:14:54.249Z,433.00
2024-03-28T03:15:54.279Z,436.00
2024-03-28T03:16:54.324Z,436.00
2024-03-28T03:17:54.367Z,435.00
2024-03-28T03:18:54.378Z,433.00
2024-03-28T03:19:54.439Z,430.00
2024-03-28T03:20:54.464Z,430.00
2024-03-28T03:21:54.512Z,428.00
2024-03-28T03:22:54.562Z,429.00
2024-03-28T03:23:54.587Z,431.00
2024-03-28T03:24:54.640Z,433.00
2024-03-28T03:25:54.685Z,431.00
2024-03-28T03:26:54.740Z,432.00
2024-03-28T03:27:54.763Z,429.00
2024-03-28T03:28:54.805Z,432.00
2024-03-28T03:29:54.837Z,433.00
2024-03-28T03:30:54.872Z,431.00
2024-03-28T03:31:54.918Z,431.00
2024-03-28T03:32:54.932Z,429.00
2024-03-28T03:33:54.964Z,431.00
2024-03-28T03:34:55.017Z,435.00
2024-03-28T03:35:55.021Z,440.00
2024-03-28T03:36:55.048Z,438.00
2024-03-28T03:37:55.092Z,437.00
2024-03-28T03:38:55.107Z,437.00
2024-03-28T03:39:55.149Z,436.00
2024-03-28T03:40:55.166Z,434.00
2024-03-28T03:41:55.190Z,430.00
2024-03-28T03:42:55.230Z,432.00
2024-03-28T03:43:55.278Z,432.00
2024-03-28T03:44:55.306Z,432.00
2024-03-28T03:45:55.356Z,434.00
2024-03-28T03:46:55.356Z,434.00
2024-03-28T03:47:55.395Z,433.00
2024-03-28T03:48:55.414Z,433.00
2024-03-28T03:49:55.445Z,435.00
2024-03-28T03:50:55.479Z,436.00
2024-03-28T03:51:55.511Z,437.00
2024-03-28T03:52:55.573Z,437.00
2024-03-28T03:53:55.574Z,437.00
2024-03-28T03:54:55.586Z,434.00
2024-03-28T03:55:55.593Z,436.00
2024-03-28T03:56:55.592Z,438.00
2024-03-28T03:57:55.595Z,437.00
2024-03-28T03:58:55.598Z,439.00
2024-03-28T03:59:55.602Z,441.00
2024-03-28T04:00:55.593Z,440.00
2024-03-28T04:01:55.602Z,437.00
2024-03-28T04:02:55.611Z,436.00
2024-03-28T04:03:55.604Z,436.00
2024-03-28T04:04:55.619Z,435.00
2024-03-28T04:05:55.611Z,433.00
2024-03-28T04:06:55.606Z,432.00
2024-03-28T04:07:55.610Z,436.00
2024-03-28T04:08:55.610Z,433.00
2024-03-28T04:09:55.611Z,433.00
2024-03-28T04:10:55.616Z,432.00
2024-03-28T04:11:55.606Z,432.00
2024-03-28T04:12:55.623Z,433.00
2024-03-28T04:13:55.616Z,433.00
2024-03-28T04:14:55.616Z,434.00
2024-03-28T04:15:55.621Z,435.00
2024-03-28T04:16:55.607Z,435.00
2024-03-28T04:17:55.621Z,434.00
2024-03-28T04:18:55.632Z,432.00
2024-03-28T04:19:55.625Z,434.00
2024-03-28T04:20:55.621Z,433.00
2024-03-28T04:21:55.623Z,437.00
2024-03-28T04:22:55.658Z,435.00
2024-03-28T04:23:55.698Z,435.00
2024-03-28T04:24:55.713Z,436.00
2024-03-28T04:25:55.767Z,436.00
2024-03-28T04:26:55.776Z,436.00
2024-03-28T04:27:55.826Z,438.00
2024-03-28T04:28:55.847Z,437.00
2024-03-28T04:30:01.713Z,436.00
2024-03-28T04:30:56.883Z,434.00
2024-03-28T04:31:55.875Z,434.00
2024-03-28T04:32:55.886Z,433.00
2024-03-28T04:33:55.879Z,434.00
2024-03-28T04:35:03.259Z,445.00
2024-03-28T04:36:03.307Z,443.00
2024-03-28T04:37:03.115Z,441.00
2024-03-28T04:38:03.229Z,442.00
2024-03-28T04:39:03.176Z,441.00
2024-03-28T04:40:03.136Z,440.00
2024-03-28T04:41:03.163Z,440.00
2024-03-28T04:42:03.268Z,441.00
2024-03-28T04:43:03.163Z,440.00
2024-03-28T04:44:03.723Z,439.00
2024-03-28T04:45:03.259Z,439.00
2024-03-28T04:46:03.278Z,438.00
2024-03-28T04:47:03.133Z,438.00
2024-03-28T04:48:03.182Z,438.00
2024-03-28T04:49:03.153Z,435.00
2024-03-28T04:50:03.723Z,434.00
2024-03-28T04:51:03.750Z,434.00
2024-03-28T04:52:03.146Z,435.00
2024-03-28T04:53:03.722Z,437.00
2024-03-28T04:54:03.724Z,437.00
2024-03-28T04:55:03.176Z,436.00
2024-03-28T04:56:03.726Z,436.00
2024-03-28T04:57:03.728Z,436.00
2024-03-28T04:58:03.181Z,436.00
2024-03-28T04:59:03.176Z,436.00
2024-03-28T05:00:03.146Z,435.00
2024-03-28T05:01:03.747Z,433.00
2024-03-28T05:02:03.188Z,435.00
2024-03-28T05:03:03.200Z,437.00
2024-03-28T05:04:03.167Z,436.00
2024-03-28T05:05:03.154Z,438.00
2024-03-28T05:06:03.190Z,442.00
2024-03-28T05:07:03.197Z,443.00
2024-03-28T05:08:03.201Z,442.00
2024-03-28T05:09:03.232Z,444.00
2024-03-28T05:10:03.250Z,443.00
2024-03-28T05:11:03.291Z,438.00
2024-03-28T05:12:03.368Z,439.00
2024-03-28T05:13:04.250Z,438.00
2024-03-28T05:14:03.394Z,439.00
2024-03-28T05:15:03.392Z,440.00
2024-03-28T05:16:03.457Z,437.00
2024-03-28T05:17:03.500Z,435.00
2024-03-28T05:18:03.491Z,437.00
2024-03-28T05:19:03.517Z,437.00
2024-03-28T05:20:03.542Z,433.00
2024-03-28T05:21:03.525Z,432.00
2024-03-28T05:22:03.525Z,433.00
2024-03-28T05:23:03.535Z,435.00
2024-03-28T05:24:04.235Z,434.00
2024-03-28T05:25:04.256Z,437.00
2024-03-28T05:26:03.743Z,435.00
2024-03-28T05:27:03.764Z,436.00
2024-03-28T05:28:03.768Z,433.00
2024-03-28T05:29:04.752Z,432.00
2024-03-28T05:30:03.821Z,432.00
2024-03-28T05:31:03.829Z,433.00
2024-03-28T05:32:04.748Z,434.00
2024-03-28T05:33:04.751Z,437.00
2024-03-28T05:34:04.000Z,436.00
2024-03-28T05:35:03.925Z,438.00
2024-03-28T05:36:03.968Z,438.00
2024-03-28T05:37:03.995Z,435.00
2024-03-28T05:38:04.046Z,438.00
2024-03-28T05:39:04.046Z,437.00
2024-03-28T05:40:04.082Z,435.00
2024-03-28T05:41:04.112Z,435.00
2024-03-28T05:42:04.748Z,431.00
2024-03-28T05:43:04.176Z,435.00
2024-03-28T05:44:04.222Z,437.00
2024-03-28T05:45:04.230Z,439.00
2024-03-28T05:46:04.264Z,439.00
2024-03-28T05:47:04.296Z,439.00
2024-03-28T05:48:04.337Z,437.00
2024-03-28T05:49:04.362Z,438.00
2024-03-28T05:50:04.390Z,436.00
2024-03-28T05:51:04.444Z,436.00
2024-03-28T05:52:04.429Z,434.00
2024-03-28T05:53:04.442Z,433.00
2024-03-28T05:54:05.249Z,431.00
2024-03-28T05:55:04.427Z,432.00
2024-03-28T05:56:04.451Z,434.00
2024-03-28T05:57:04.440Z,437.00
2024-03-28T05:58:04.450Z,439.00
2024-03-28T05:59:04.436Z,441.00
2024-03-28T06:00:04.423Z,440.00
2024-03-28T06:01:04.432Z,440.00
2024-03-28T06:02:04.431Z,435.00
2024-03-28T06:03:04.445Z,432.00
2024-03-28T06:04:04.438Z,432.00
2024-03-28T06:05:04.441Z,431.00
2024-03-28T06:06:05.253Z,432.00
2024-03-28T06:07:05.262Z,431.00
2024-03-28T06:08:04.442Z,430.00
2024-03-28T06:09:04.455Z,432.00
2024-03-28T06:10:04.440Z,435.00
2024-03-28T06:11:04.457Z,437.00
2024-03-28T06:12:05.266Z,437.00
2024-03-28T06:13:04.463Z,435.00
2024-03-28T06:14:05.259Z,436.00
2024-03-28T06:15:04.474Z,439.00
2024-03-28T06:16:05.258Z,437.00
2024-03-28T06:17:04.472Z,437.00
2024-03-28T06:18:04.472Z,438.00
2024-03-28T06:19:04.480Z,439.00
2024-03-28T06:20:04.460Z,442.00
2024-03-28T06:21:04.498Z,443.00
2024-03-28T06:22:04.482Z,443.00
2024-03-28T06:23:04.476Z,442.00
2024-03-28T06:24:05.260Z,437.00
2024-03-28T06:25:04.474Z,439.00
2024-03-28T06:26:04.469Z,443.00
2024-03-28T06:27:04.479Z,445.00
2024-03-28T06:28:04.477Z,441.00
2024-03-28T06:29:04.512Z,439.00
2024-03-28T06:30:04.563Z,439.00
2024-03-28T06:31:04.586Z,438.00
2024-03-28T06:32:04.626Z,437.00
2024-03-28T06:33:04.684Z,439.00
2024-03-28T06:34:05.264Z,440.00
2024-03-28T06:35:04.748Z,441.00
2024-03-28T06:36:05.769Z,442.00
2024-03-28T06:37:04.826Z,444.00
2024-03-28T06:38:04.836Z,443.00
2024-03-28T06:39:04.837Z,443.00
2024-03-28T06:40:04.854Z,442.00
2024-03-28T06:41:04.845Z,442.00
2024-03-28T06:42:05.783Z,443.00
2024-03-28T06:43:04.846Z,442.00
2024-03-28T06:44:04.842Z,440.00
2024-03-28T06:45:04.849Z,441.00
2024-03-28T06:46:05.775Z,442.00
2024-03-28T06:47:04.853Z,439.00
2024-03-28T06:48:04.875Z,437.00
2024-03-28T06:49:04.864Z,438.00
2024-03-28T06:50:04.854Z,437.00
2024-03-28T06:51:04.855Z,435.00
2024-03-28T06:52:04.855Z,436.00
2024-03-28T06:53:04.872Z,438.00
2024-03-28T06:54:04.867Z,435.00
2024-03-28T06:55:04.858Z,433.00
2024-03-28T06:56:04.855Z,434.00
2024-03-28T06:57:04.873Z,437.00
2024-03-28T06:58:04.910Z,436.00
2024-03-28T06:59:04.948Z,435.00
2024-03-28T07:00:04.983Z,436.00
2024-03-28T07:01:05.009Z,433.00
2024-03-28T07:02:05.058Z,435.00
2024-03-28T07:03:05.060Z,440.00
2024-03-28T07:04:05.088Z,440.00
2024-03-28T07:05:05.130Z,437.00
2024-03-28T07:06:13.394Z,433.00
2024-03-28T07:07:06.159Z,432.00
2024-03-28T07:08:05.162Z,431.00
2024-03-28T07:09:05.153Z,431.00
2024-03-28T07:10:05.805Z,434.00
2024-03-28T07:11:05.179Z,435.00
2024-03-28T07:12:05.145Z,434.00
2024-03-28T07:13:05.156Z,435.00
2024-03-28T07:14:05.148Z,438.00
2024-03-28T07:15:05.154Z,440.00
2024-03-28T07:16:05.152Z,442.00
2024-03-28T07:17:05.167Z,442.00
2024-03-28T07:18:05.161Z,444.00
2024-03-28T07:19:05.795Z,444.00
2024-03-28T07:20:05.155Z,444.00
2024-03-28T07:21:05.186Z,441.00
2024-03-28T07:22:05.155Z,443.00
2024-03-28T07:23:05.156Z,442.00
2024-03-28T07:24:05.156Z,439.00
2024-03-28T07:25:05.169Z,438.00
2024-03-28T07:26:05.164Z,439.00
2024-03-28T07:27:05.170Z,439.00
2024-03-28T07:28:05.166Z,439.00
2024-03-28T07:29:05.174Z,437.00
2024-03-28T07:30:05.788Z,437.00
2024-03-28T07:31:05.169Z,437.00
2024-03-28T07:32:05.786Z,437.00
2024-03-28T07:33:05.178Z,436.00
2024-03-28T07:34:05.191Z,437.00
2024-03-28T07:35:05.177Z,437.00
2024-03-28T07:36:05.178Z,436.00
2024-03-28T07:37:05.796Z,438.00
2024-03-28T07:38:05.183Z,440.00
2024-03-28T07:39:05.804Z,442.00
2024-03-28T07:40:05.196Z,446.00
2024-03-28T07:41:05.201Z,448.00
2024-03-28T07:42:05.200Z,445.00
2024-03-28T07:43:05.218Z,447.00
2024-03-28T07:44:05.216Z,444.00
2024-03-28T07:45:05.217Z,444.00
2024-03-28T07:46:05.227Z,443.00
2024-03-28T07:47:05.239Z,443.00
2024-03-28T07:48:05.235Z,443.00
2024-03-28T07:49:05.245Z,441.00
2024-03-28T07:50:05.815Z,443.00
2024-03-28T07:51:05.827Z,443.00
2024-03-28T07:52:05.256Z,441.00
2024-03-28T07:53:05.295Z,440.00
2024-03-28T07:54:05.273Z,439.00
2024-03-28T07:55:05.286Z,438.00
2024-03-28T07:56:05.283Z,436.00
2024-03-28T07:57:05.283Z,434.00
2024-03-28T07:58:05.284Z,435.00
2024-03-28T07:59:05.291Z,435.00
2024-03-28T08:00:05.289Z,436.00
2024-03-28T08:01:05.318Z,439.00
2024-03-28T08:02:05.327Z,440.00
2024-03-28T08:03:05.325Z,439.00
2024-03-28T08:04:05.327Z,439.00
2024-03-28T08:05:05.334Z,437.00
2024-03-28T08:06:05.334Z,439.00
2024-03-28T08:07:06.318Z,439.00
2024-03-28T08:08:06.313Z,439.00
2024-03-28T08:09:05.341Z,445.00
2024-03-28T08:10:05.338Z,447.00
2024-03-28T08:11:05.343Z,451.00
2024-03-28T08:12:06.312Z,451.00
2024-03-28T08:13:05.353Z,452.00
2024-03-28T08:14:06.315Z,449.00
2024-03-28T08:15:05.357Z,448.00
2024-03-28T08:16:05.356Z,446.00
2024-03-28T08:17:05.353Z,444.00
2024-03-28T08:18:05.360Z,444.00
2024-03-28T08:19:05.367Z,443.00
2024-03-28T08:20:05.358Z,441.00
2024-03-28T08:21:06.307Z,440.00
2024-03-28T08:22:05.352Z,438.00
2024-03-28T08:23:05.416Z,438.00
2024-03-28T08:24:05.360Z,440.00
2024-03-28T08:25:06.337Z,439.00
2024-03-28T08:26:06.310Z,438.00
2024-03-28T08:27:05.438Z,440.00
2024-03-28T08:28:06.315Z,447.00
2024-03-28T08:29:06.326Z,447.00
2024-03-28T08:30:06.316Z,449.00
2024-03-28T08:31:05.359Z,450.00
2024-03-28T08:32:06.323Z,450.00
2024-03-28T08:33:05.425Z,449.00
2024-03-28T08:34:06.336Z,447.00
2024-03-28T08:35:05.430Z,442.00
2024-03-28T08:36:05.448Z,445.00
2024-03-28T08:37:05.415Z,445.00
2024-03-28T08:38:05.380Z,443.00
2024-03-28T08:39:05.469Z,445.00
2024-03-28T08:40:06.319Z,445.00
2024-03-28T08:41:05.449Z,445.00
2024-03-28T08:42:05.451Z,440.00
2024-03-28T08:43:05.422Z,438.00
2024-03-28T08:44:05.446Z,441.00
2024-03-28T08:45:05.387Z,440.00
2024-03-28T08:46:06.320Z,440.00
2024-03-28T08:47:05.457Z,438.00
2024-03-28T08:48:06.324Z,436.00
2024-03-28T08:49:05.484Z,437.00
2024-03-28T08:50:06.323Z,438.00
2024-03-28T08:51:06.351Z,438.00
2024-03-28T08:52:05.516Z,438.00
2024-03-28T08:53:05.484Z,435.00
2024-03-28T08:54:05.508Z,436.00
2024-03-28T08:55:05.401Z,438.00
2024-03-28T08:56:05.411Z,439.00
2024-03-28T08:57:05.413Z,439.00
2024-03-28T08:58:06.324Z,442.00
2024-03-28T08:59:05.542Z,444.00
2024-03-28T09:00:05.411Z,443.00
2024-03-28T09:01:05.422Z,444.00
2024-03-28T09:02:05.435Z,444.00
2024-03-28T09:03:05.403Z,443.00
2024-03-28T09:04:05.418Z,442.00
2024-03-28T09:05:06.349Z,440.00
2024-03-28T09:06:05.402Z,443.00
2024-03-28T09:07:05.420Z,444.00
2024-03-28T09:08:06.381Z,446.00
2024-03-28T09:09:05.409Z,445.00
2024-03-28T09:10:05.426Z,448.00
2024-03-28T09:11:05.410Z,449.00
2024-03-28T09:12:05.419Z,446.00
2024-03-28T09:13:06.328Z,446.00
2024-03-28T09:14:05.439Z,448.00
2024-03-28T09:15:05.426Z,449.00
2024-03-28T09:16:06.336Z,450.00
2024-03-28T09:17:05.420Z,450.00
2024-03-28T09:18:05.425Z,449.00
2024-03-28T09:19:05.425Z,448.00
2024-03-28T09:20:05.421Z,445.00
2024-03-28T09:21:06.336Z,444.00
2024-03-28T09:22:05.432Z,443.00
2024-03-28T09:23:05.415Z,442.00
2024-03-28T09:24:05.435Z,444.00
2024-03-28T09:25:05.422Z,444.00
2024-03-28T09:26:06.336Z,443.00
2024-03-28T09:27:05.438Z,441.00
2024-03-28T09:28:06.341Z,440.00
2024-03-28T09:29:05.434Z,441.00
2024-03-28T09:30:05.431Z,439.00
2024-03-28T09:32:05.432Z,441.00
2024-03-28T09:33:06.373Z,441.00
2024-03-28T09:34:05.452Z,441.00
2024-03-28T09:35:06.349Z,442.00
2024-03-28T09:36:06.343Z,442.00
2024-03-28T09:37:05.448Z,441.00
2024-03-28T09:38:05.444Z,441.00
2024-03-28T09:39:06.334Z,441.00
2024-03-28T09:40:05.442Z,441.00
2024-03-28T09:41:05.439Z,440.00
2024-03-28T09:42:05.444Z,440.00
2024-03-28T09:43:05.447Z,438.00
2024-03-28T09:44:06.339Z,438.00
2024-03-28T09:45:05.453Z,437.00
2024-03-28T09:46:06.341Z,440.00
2024-03-28T09:47:05.450Z,443.00
2024-03-28T09:48:06.352Z,444.00
2024-03-28T09:49:06.343Z,443.00
2024-03-28T09:50:05.452Z,443.00
2024-03-28T09:51:05.448Z,444.00
2024-03-28T09:52:05.459Z,444.00
2024-03-28T09:53:06.379Z,443.00
2024-03-28T09:54:05.471Z,446.00
2024-03-28T09:55:06.351Z,445.00
2024-03-28T09:56:05.463Z,444.00
2024-03-28T09:57:06.355Z,443.00
2024-03-28T09:58:05.469Z,444.00
2024-03-28T09:59:05.448Z,443.00
2024-03-28T10:00:06.360Z,441.00
2024-03-28T10:01:06.356Z,442.00
2024-03-28T10:02:05.479Z,440.00
2024-03-28T10:03:05.473Z,440.00
2024-03-28T10:04:05.474Z,441.00
2024-03-28T10:05:05.475Z,440.00
2024-03-28T10:06:06.374Z,442.00
2024-03-28T10:07:05.483Z,441.00
2024-03-28T10:08:06.351Z,441.00
2024-03-28T10:09:05.465Z,441.00
2024-03-28T10:10:05.490Z,443.00
2024-03-28T10:11:05.491Z,444.00
2024-03-28T10:12:05.474Z,443.00
2024-03-28T10:13:05.488Z,442.00
2024-03-28T10:14:05.514Z,442.00
2024-03-28T10:15:06.353Z,441.00
2024-03-28T10:16:05.637Z,444.00
2024-03-28T10:17:05.711Z,444.00
2024-03-28T10:18:05.877Z,443.00
2024-03-28T10:19:05.903Z,443.00
2024-03-28T10:20:05.955Z,440.00
2024-03-28T10:21:05.931Z,439.00
2024-03-28T10:22:08.151Z,442.00
2024-03-28T10:23:06.865Z,441.00
2024-03-28T10:24:06.000Z,443.00
2024-03-28T10:25:06.859Z,443.00
2024-03-28T10:26:06.858Z,441.00
2024-03-28T10:27:05.994Z,444.00
2024-03-28T10:28:06.074Z,441.00
2024-03-28T10:29:06.018Z,442.00
2024-03-28T10:30:06.006Z,442.00
2024-03-28T10:31:06.925Z,439.00
2024-03-28T10:32:06.008Z,439.00
2024-03-28T10:33:07.432Z,439.00
2024-03-28T10:34:06.042Z,439.00
2024-03-28T10:35:06.054Z,440.00
2024-03-28T10:36:06.103Z,441.00
2024-03-28T10:37:06.016Z,440.00
2024-03-28T10:38:10.379Z,442.00
2024-03-28T10:39:07.035Z,439.00
2024-03-28T10:40:06.869Z,439.00
2024-03-28T10:41:06.030Z,440.00
2024-03-28T10:42:06.038Z,441.00
2024-03-28T10:43:06.028Z,441.00
2024-03-28T10:44:06.892Z,438.00
2024-03-28T10:45:06.031Z,440.00
2024-03-28T10:46:06.037Z,439.00
2024-03-28T10:47:06.029Z,439.00
2024-03-28T10:48:06.862Z,438.00
2024-03-28T10:49:06.131Z,437.00
2024-03-28T10:50:06.183Z,436.00
2024-03-28T10:51:06.252Z,438.00
2024-03-28T10:52:06.867Z,438.00
2024-03-28T10:53:06.405Z,438.00
2024-03-28T10:54:13.107Z,436.00
2024-03-28T10:55:08.370Z,433.00
2024-03-28T10:56:07.382Z,431.00
2024-03-28T10:57:06.463Z,433.00
2024-03-28T10:58:06.471Z,434.00
2024-03-28T10:59:06.470Z,435.00
2024-03-28T11:00:06.472Z,435.00
2024-03-28T11:01:11.391Z,436.00
2024-03-28T11:02:08.372Z,435.00
2024-03-28T11:03:06.494Z,433.00
2024-03-28T11:04:06.539Z,437.00
2024-03-28T11:05:06.472Z,437.00
2024-03-28T11:06:07.382Z,436.00
2024-03-28T11:07:06.472Z,435.00
2024-03-28T11:08:06.480Z,436.00
2024-03-28T11:09:06.524Z,436.00
2024-03-28T11:10:06.625Z,438.00
2024-03-28T11:11:06.674Z,438.00
2024-03-28T11:12:06.755Z,437.00
2024-03-28T11:13:06.825Z,438.00
2024-03-28T11:14:06.872Z,440.00
2024-03-28T11:15:06.944Z,438.00
2024-03-28T11:16:07.023Z,439.00
2024-03-28T11:17:07.069Z,438.00
2024-03-28T11:18:07.885Z,439.00
2024-03-28T11:19:07.881Z,440.00
2024-03-28T11:20:07.886Z,437.00
2024-03-28T11:21:07.349Z,436.00
2024-03-28T11:22:08.375Z,436.00
2024-03-28T11:23:07.481Z,437.00
2024-03-28T11:24:07.547Z,435.00
2024-03-28T11:25:07.614Z,433.00
2024-03-28T11:26:07.827Z,434.00
2024-03-28T11:27:08.384Z,435.00
2024-03-28T11:28:07.909Z,434.00
2024-03-28T11:29:07.891Z,436.00
2024-03-28T11:30:07.997Z,440.00
2024-03-28T11:31:08.040Z,442.00
2024-03-28T11:32:08.892Z,445.00
2024-03-28T11:33:08.180Z,444.00
2024-03-28T11:34:08.241Z,445.00
2024-03-28T11:35:08.882Z,444.00
2024-03-28T11:36:08.900Z,444.00
2024-03-28T11:37:09.572Z,442.00
2024-03-28T11:38:08.530Z,442.00
2024-03-28T11:39:08.589Z,441.00
2024-03-28T11:40:08.662Z,438.00
2024-03-28T11:41:08.727Z,438.00
2024-03-28T11:42:09.398Z,438.00
2024-03-28T11:43:08.881Z,439.00
2024-03-28T11:44:09.887Z,439.00
2024-03-28T11:45:09.884Z,441.00
2024-03-28T11:46:09.027Z,440.00
2024-03-28T11:47:09.056Z,438.00
2024-03-28T11:48:09.127Z,438.00
2024-03-28T11:49:09.123Z,434.00
2024-03-28T11:50:11.256Z,432.00
2024-03-28T11:51:09.128Z,433.00
2024-03-28T11:52:09.141Z,433.00
2024-03-28T11:53:09.131Z,433.00
2024-03-28T11:54:09.131Z,433.00
2024-03-28T11:55:09.134Z,435.00
2024-03-28T11:56:09.906Z,432.00
2024-03-28T11:57:09.130Z,433.00
2024-03-28T11:58:09.893Z,434.00
2024-03-28T11:59:09.137Z,432.00
2024-03-28T12:00:09.138Z,431.00
2024-03-28T12:01:09.135Z,431.00
2024-03-28T12:02:09.900Z,432.00
2024-03-28T12:03:09.895Z,433.00
2024-03-28T12:04:09.150Z,434.00
2024-03-28T12:05:09.901Z,434.00
2024-03-28T12:06:09.148Z,434.00
2024-03-28T12:07:09.151Z,433.00
2024-03-28T12:08:09.913Z,434.00
2024-03-28T12:09:09.934Z,432.00
2024-03-28T12:10:09.167Z,432.00
2024-03-28T12:11:09.145Z,435.00
2024-03-28T12:12:09.915Z,433.00
2024-03-28T12:13:09.406Z,436.00
2024-03-28T12:14:12.488Z,438.00
2024-03-28T12:15:09.145Z,437.00
2024-03-28T12:16:09.173Z,438.00
2024-03-28T12:17:09.170Z,439.00
2024-03-28T12:18:09.169Z,438.00
2024-03-28T12:19:09.170Z,435.00
2024-03-28T12:20:12.519Z,432.00
2024-03-28T12:21:09.909Z,431.00
2024-03-28T12:22:09.172Z,432.00
2024-03-28T12:23:09.182Z,432.00
2024-03-28T12:24:09.184Z,432.00
2024-03-28T12:25:09.151Z,435.00
2024-03-28T12:26:09.190Z,436.00
2024-03-28T12:27:09.151Z,439.00
2024-03-28T12:28:09.157Z,439.00
2024-03-28T12:29:09.209Z,440.00
2024-03-28T12:30:09.283Z,439.00
2024-03-28T12:31:09.330Z,439.00
2024-03-28T12:32:09.906Z,439.00